Time;durP1;ratioP1;P1;durP2;ratioP2;P2;SDS_P1;SDS_P2;PMS_P1;PMS_P2;Temp;Humidity;BMP_temperature;BMP_pressure;BME280_temperature;BME280_humidity;BME280_pressure;Samples;Min_cycle;Max_cycle;Signal;HPM_P1;HPM_P2
2021/12/24 00:00:45;;;;;;;70.07;45.13;;;21.40;96.70;;;;;;4178465;28;20045;-70
2021/12/24 00:02:50;;;;;;;73.97;44.30;;;21.40;96.80;;;;;;4179978;28;20136;-69
2021/12/24 00:04:54;;;;;;;73.85;44.90;;;21.30;96.90;;;;;;4179796;28;20063;-70
2021/12/24 00:06:59;;;;;;;70.90;43.45;;;21.30;96.90;;;;;;4177840;28;20052;-70
2021/12/24 00:09:05;;;;;;;76.53;45.88;;;21.40;96.80;;;;;;4180261;28;20567;-68
2021/12/24 00:11:10;;;;;;;70.00;46.20;;;21.50;96.70;;;;;;4179702;28;20127;-68
2021/12/24 00:13:16;;;;;;;74.40;47.35;;;21.50;96.80;;;;;;4179371;28;20417;-67
2021/12/24 00:17:38;;;;;;;74.35;47.97;;;21.40;96.90;;;;;;4178906;28;20063;-68
2021/12/24 00:35:55;;;;;;;78.35;50.25;;;21.10;97.50;;;;;;4163787;28;20618;-71
2021/12/24 00:38:05;;;;;;;80.78;51.75;;;21.30;97.40;;;;;;4179158;28;20060;-71
2021/12/24 00:40:19;;;;;;;71.03;50.50;;;21.20;97.60;;;;;;4171932;28;20033;-72
2021/12/24 00:42:24;;;;;;;79.57;51.65;;;21.20;97.60;;;;;;4183040;28;20048;-72
2021/12/24 00:44:29;;;;;;;74.68;51.17;;;21.40;97.50;;;;;;4196870;28;20063;-71
2021/12/24 00:46:34;;;;;;;71.72;49.95;;;21.30;97.50;;;;;;4191409;28;20049;-71
2021/12/24 00:48:39;;;;;;;71.88;48.92;;;21.30;97.40;;;;;;4180544;28;20523;-71
2021/12/24 00:50:57;;;;;;;72.72;49.30;;;21.30;97.60;;;;;;4179436;28;20045;-72
2021/12/24 00:53:03;;;;;;;71.57;50.60;;;21.40;97.50;;;;;;4180213;28;20507;-71
2021/12/24 00:55:12;;;;;;;80.25;51.78;;;21.50;97.30;;;;;;4180308;28;20476;-71
2021/12/24 00:57:17;;;;;;;75.82;51.75;;;21.50;97.90;;;;;;4178896;28;20056;-71
2021/12/24 00:59:21;;;;;;;73.25;50.95;;;21.40;97.70;;;;;;4180234;28;20120;-70
2021/12/24 01:01:26;;;;;;;76.00;51.55;;;21.40;97.70;;;;;;4179568;28;20470;-71
2021/12/24 01:03:30;;;;;;;77.07;52.97;;;21.60;97.50;;;;;;4180004;28;20045;-71
2021/12/24 01:05:36;;;;;;;71.82;51.55;;;21.60;97.70;;;;;;4178659;28;20057;-71
2021/12/24 01:07:41;;;;;;;76.25;49.35;;;21.70;97.30;;;;;;4178818;28;20045;-71
2021/12/24 01:09:45;;;;;;;75.85;49.50;;;21.70;97.30;;;;;;4180048;28;20053;-71
2021/12/24 01:11:50;;;;;;;75.57;48.33;;;21.60;97.30;;;;;;4179621;28;20088;-70
2021/12/24 01:13:54;;;;;;;72.00;49.47;;;21.70;97.40;;;;;;4180055;28;20422;-71
2021/12/24 01:16:11;;;;;;;70.70;48.30;;;21.90;97.30;;;;;;4180094;28;20055;-71
2021/12/24 01:20:45;;;;;;;81.30;47.08;;;22.00;97.20;;;;;;4178575;28;20144;-72
2021/12/24 01:38:36;;;;;;;58.17;39.47;;;22.50;96.50;;;;;;4164240;28;20078;-69
2021/12/24 01:42:46;;;;;;;56.53;36.90;;;22.70;96.10;;;;;;4169949;28;20049;-70
2021/12/24 01:44:50;;;;;;;50.20;35.10;;;22.80;96.10;;;;;;4179806;28;20058;-71
2021/12/24 01:46:57;;;;;;;50.03;35.70;;;22.80;95.90;;;;;;4171296;28;20128;-71
2021/12/24 01:49:02;;;;;;;48.92;36.40;;;22.90;96.10;;;;;;4194969;28;20045;-70
2021/12/24 01:51:06;;;;;;;52.88;37.20;;;22.90;96.10;;;;;;4162891;28;20431;-70
2021/12/24 01:53:25;;;;;;;57.80;37.80;;;22.90;96.10;;;;;;4167794;28;20103;-70
2021/12/24 01:55:30;;;;;;;53.17;38.03;;;22.90;96.40;;;;;;4178323;28;20049;-69
2021/12/24 01:57:35;;;;;;;53.80;37.17;;;22.90;96.60;;;;;;4178451;28;20479;-69
2021/12/24 01:59:41;;;;;;;56.03;39.88;;;22.90;96.60;;;;;;4178261;28;20052;-69
2021/12/24 02:01:45;;;;;;;51.42;37.55;;;23.00;96.40;;;;;;4179533;28;20087;-69
2021/12/24 02:03:49;;;;;;;57.75;40.38;;;23.10;96.60;;;;;;4179133;28;20717;-69
2021/12/24 02:05:55;;;;;;;63.17;39.58;;;23.00;96.50;;;;;;4178423;28;20454;-70
2021/12/24 02:08:00;;;;;;;55.47;38.65;;;23.10;96.70;;;;;;4171683;28;20049;-70
2021/12/24 02:10:08;;;;;;;54.33;37.38;;;23.10;96.40;;;;;;4176498;28;20376;-70
2021/12/24 02:12:14;;;;;;;54.05;37.00;;;23.20;96.40;;;;;;4161413;28;20093;-70
2021/12/24 02:14:22;;;;;;;57.13;38.60;;;23.30;96.30;;;;;;4159130;28;20132;-69
2021/12/24 02:30:04;;;;;;;55.58;35.95;;;23.60;96.30;;;;;;4178117;28;20715;-70
2021/12/24 02:32:10;;;;;;;47.72;34.00;;;23.60;96.30;;;;;;4178026;28;20041;-71
2021/12/24 02:34:17;;;;;;;47.90;35.30;;;23.70;96.40;;;;;;4178046;28;20083;-70
2021/12/24 02:36:22;;;;;;;48.28;34.92;;;23.70;96.40;;;;;;4178713;28;20080;-70
2021/12/24 02:38:26;;;;;;;48.15;33.42;;;23.70;96.40;;;;;;4178031;28;20136;-71
2021/12/24 02:40:31;;;;;;;53.90;33.42;;;23.80;96.60;;;;;;4177883;28;20037;-69
2021/12/24 02:42:35;;;;;;;54.65;33.55;;;23.80;96.90;;;;;;4183267;28;20054;-71
2021/12/24 02:44:40;;;;;;;46.22;32.92;;;23.90;96.40;;;;;;4195875;28;20048;-69
2021/12/24 02:55:44;;;;;;;48.88;31.95;;;24.00;96.80;;;;;;4180651;28;20146;-70
2021/12/24 02:57:50;;;;;;;46.78;33.33;;;24.10;96.70;;;;;;4182164;28;20053;-71
2021/12/24 03:02:20;;;;;;;45.50;32.60;;;24.20;96.70;;;;;;4178119;28;20132;-70
2021/12/24 03:04:25;;;;;;;40.67;30.48;;;24.20;96.50;;;;;;4183263;28;20089;-69
2021/12/24 03:06:33;;;;;;;39.70;29.02;;;24.30;96.80;;;;;;4203238;28;20128;-70
2021/12/24 03:08:38;;;;;;;42.90;30.13;;;24.30;96.70;;;;;;4177108;28;20540;-69
2021/12/24 03:10:43;;;;;;;41.97;29.20;;;24.40;96.70;;;;;;4185303;28;20053;-69
2021/12/24 03:12:51;;;;;;;41.08;28.65;;;24.40;96.50;;;;;;4178914;28;20045;-71
2021/12/24 03:14:56;;;;;;;40.45;27.67;;;24.50;96.60;;;;;;4180420;28;20045;-70
2021/12/24 03:17:06;;;;;;;35.47;26.10;;;24.50;96.40;;;;;;4179360;28;20041;-69
2021/12/24 03:19:12;;;;;;;35.75;25.48;;;24.60;96.40;;;;;;4178255;28;20056;-70
2021/12/24 03:21:22;;;;;;;38.03;25.55;;;24.70;96.40;;;;;;4179050;28;20099;-70
2021/12/24 03:23:43;;;;;;;35.28;26.20;;;24.70;96.30;;;;;;4204239;28;20040;-70
2021/12/24 03:25:47;;;;;;;34.15;25.23;;;24.80;96.20;;;;;;4178737;28;20072;-69
2021/12/24 03:27:52;;;;;;;37.40;25.23;;;24.90;96.00;;;;;;4180011;28;20136;-68
2021/12/24 03:29:58;;;;;;;33.40;26.58;;;24.90;95.90;;;;;;4203547;28;20068;-70
2021/12/24 03:32:03;;;;;;;33.17;26.52;;;24.90;95.80;;;;;;4182342;28;20124;-69
2021/12/24 03:34:08;;;;;;;38.55;26.60;;;24.90;95.70;;;;;;4177478;28;20478;-71
2021/12/24 03:36:14;;;;;;;32.35;25.35;;;25.00;95.60;;;;;;4178811;28;20391;-71
2021/12/24 03:38:19;;;;;;;34.03;25.70;;;25.00;95.60;;;;;;4179992;28;20044;-69
2021/12/24 03:40:23;;;;;;;58.50;26.73;;;25.00;95.60;;;;;;4179548;28;20037;-72
2021/12/24 03:42:28;;;;;;;38.03;24.83;;;25.10;95.40;;;;;;4177035;28;20045;-74
2021/12/24 03:44:38;;;;;;;33.35;25.25;;;25.10;95.40;;;;;;4182645;28;20051;-74
2021/12/24 03:49:05;;;;;;;41.10;24.45;;;25.30;95.30;;;;;;4211317;28;20056;-70
2021/12/24 03:55:44;;;;;;;34.72;24.85;;;25.50;95.20;;;;;;4179511;28;20045;-72
2021/12/24 03:57:48;;;;;;;33.78;24.23;;;25.50;95.10;;;;;;4180192;28;20127;-72
2021/12/24 04:00:15;;;;;;;30.05;23.52;;;25.50;95.10;;;;;;4180942;28;20065;-71
2021/12/24 04:02:19;;;;;;;32.00;23.27;;;25.50;95.20;;;;;;4181295;28;20041;-73
2021/12/24 04:04:45;;;;;;;29.92;21.42;;;25.60;95.10;;;;;;4180749;28;20056;-71
2021/12/24 04:07:02;;;;;;;32.97;23.27;;;25.60;94.90;;;;;;4181181;28;20055;-71
2021/12/24 04:09:20;;;;;;;31.95;22.52;;;25.70;94.80;;;;;;4180905;28;20471;-72
2021/12/24 04:11:43;;;;;;;32.78;23.10;;;25.70;94.70;;;;;;4179346;28;20080;-72
2021/12/24 04:13:47;;;;;;;31.08;22.17;;;25.80;94.30;;;;;;4181156;28;20111;-70
2021/12/24 04:15:51;;;;;;;31.10;22.23;;;25.80;94.30;;;;;;4180454;28;20033;-71
2021/12/24 04:17:56;;;;;;;30.30;21.80;;;25.90;94.30;;;;;;4183342;28;20048;-70
2021/12/24 04:26:50;;;;;;;29.80;20.65;;;26.00;94.10;;;;;;4185180;28;20056;-69
2021/12/24 04:28:55;;;;;;;27.65;20.65;;;26.00;94.00;;;;;;4195556;28;20117;-69
2021/12/24 04:31:03;;;;;;;27.48;21.17;;;26.10;93.90;;;;;;4183789;28;20045;-71
2021/12/24 04:35:32;;;;;;;24.05;18.42;;;26.50;93.30;;;;;;4180268;28;20049;-70
2021/12/24 05:02:39;;;;;;;24.63;18.77;;;26.60;92.70;;;;;;4176405;28;20517;-70
2021/12/24 05:04:52;;;;;;;27.55;18.60;;;26.70;92.60;;;;;;4176592;28;20495;-70
2021/12/24 05:07:13;;;;;;;26.83;19.55;;;26.80;92.60;;;;;;4175939;28;20057;-70
2021/12/24 05:09:23;;;;;;;28.90;19.27;;;27.00;92.50;;;;;;4176754;28;20080;-70
2021/12/24 05:11:28;;;;;;;29.90;19.92;;;27.00;92.50;;;;;;4176117;28;20098;-69
2021/12/24 05:13:33;;;;;;;26.95;18.38;;;27.10;92.40;;;;;;4175632;28;20044;-70
2021/12/24 05:16:05;;;;;;;28.02;18.65;;;27.10;92.20;;;;;;4177052;28;20045;-69
2021/12/24 05:18:37;;;;;;;27.25;18.80;;;27.10;92.10;;;;;;4176822;28;20041;-69
2021/12/24 05:23:18;;;;;;;27.73;18.92;;;27.00;92.10;;;;;;4175984;28;20053;-69
2021/12/24 05:25:22;;;;;;;26.25;18.77;;;27.10;91.80;;;;;;4177560;28;20049;-68
2021/12/24 05:27:27;;;;;;;29.35;18.92;;;27.20;91.50;;;;;;4177302;28;20037;-69
2021/12/24 05:29:33;;;;;;;28.98;19.40;;;27.30;91.80;;;;;;4175087;28;20458;-70
2021/12/24 05:31:37;;;;;;;28.63;20.83;;;27.30;91.50;;;;;;4175339;28;20136;-69
2021/12/24 05:33:42;;;;;;;24.38;18.67;;;27.60;91.40;;;;;;4177180;28;20079;-70
2021/12/24 05:35:47;;;;;;;32.05;17.95;;;27.60;90.60;;;;;;4176557;28;20068;-70
2021/12/24 05:37:53;;;;;;;28.60;18.33;;;27.40;90.50;;;;;;4175437;28;20061;-69
2021/12/24 05:39:57;;;;;;;26.50;19.83;;;27.30;90.70;;;;;;4176189;28;20094;-71
2021/12/24 05:42:05;;;;;;;25.00;18.33;;;27.30;91.00;;;;;;4176302;28;20049;-71
2021/12/24 05:44:15;;;;;;;22.40;18.10;;;27.30;91.00;;;;;;4176076;28;20048;-71
2021/12/24 05:46:22;;;;;;;23.85;18.45;;;27.50;91.10;;;;;;4175772;28;20044;-71
2021/12/24 05:48:44;;;;;;;25.10;17.00;;;27.60;90.50;;;;;;4176221;28;20048;-70
2021/12/24 05:50:51;;;;;;;22.48;16.80;;;27.70;90.50;;;;;;4175831;28;20124;-69
2021/12/24 05:53:08;;;;;;;19.75;15.98;;;27.80;90.30;;;;;;4177400;28;20045;-70
2021/12/24 05:55:26;;;;;;;25.55;16.05;;;27.90;90.10;;;;;;4176068;28;20041;-69
2021/12/24 05:57:39;;;;;;;21.58;15.93;;;27.90;90.00;;;;;;4194113;28;20083;-70
2021/12/24 05:59:43;;;;;;;24.50;16.48;;;28.00;89.60;;;;;;4176863;28;20048;-70
2021/12/24 06:01:47;;;;;;;22.17;15.95;;;28.00;86.60;;;;;;4175934;28;20063;-69
2021/12/24 06:03:52;;;;;;;24.27;16.08;;;28.10;87.10;;;;;;4177364;28;20052;-69
2021/12/24 06:05:58;;;;;;;20.52;14.70;;;27.90;88.20;;;;;;4177369;28;20060;-70
2021/12/24 06:08:03;;;;;;;21.17;15.20;;;27.80;87.40;;;;;;4177020;28;20056;-70
2021/12/24 06:10:08;;;;;;;21.25;14.80;;;27.90;86.90;;;;;;4177222;28;20041;-69
2021/12/24 06:12:12;;;;;;;18.85;14.18;;;28.00;84.50;;;;;;4176719;28;20049;-70
2021/12/24 06:14:17;;;;;;;17.45;13.07;;;28.10;85.10;;;;;;4177269;28;20052;-70
2021/12/24 06:16:22;;;;;;;16.25;12.55;;;28.10;84.10;;;;;;4177422;28;20098;-70
2021/12/24 06:18:27;;;;;;;15.27;12.82;;;28.20;83.50;;;;;;4191759;28;20045;-71
2021/12/24 06:20:31;;;;;;;14.93;12.52;;;28.30;83.50;;;;;;4196736;28;20721;-69
2021/12/24 06:22:36;;;;;;;18.63;12.65;;;28.40;82.20;;;;;;4197086;28;20098;-70
2021/12/24 06:24:41;;;;;;;20.17;11.20;;;28.30;81.20;;;;;;4196785;28;20044;-70
2021/12/24 06:26:47;;;;;;;14.10;10.20;;;28.30;80.50;;;;;;4196888;28;20060;-70
2021/12/24 06:28:51;;;;;;;15.25;10.40;;;28.40;79.70;;;;;;4197002;28;20055;-69
2021/12/24 06:30:55;;;;;;;16.98;11.65;;;28.30;80.10;;;;;;4180971;28;20475;-69
2021/12/24 06:33:00;;;;;;;22.60;12.60;;;28.30;80.80;;;;;;4178864;28;20060;-69
2021/12/24 06:35:08;;;;;;;18.27;13.45;;;28.40;82.50;;;;;;4179723;28;20168;-70
2021/12/24 06:37:13;;;;;;;18.77;14.52;;;28.50;83.70;;;;;;4179353;28;20053;-69
2021/12/24 06:39:18;;;;;;;22.10;15.07;;;28.50;84.40;;;;;;4182434;28;20361;-69
2021/12/24 06:41:22;;;;;;;22.75;15.48;;;28.60;84.60;;;;;;4182585;28;20739;-69
2021/12/24 06:43:28;;;;;;;19.08;14.10;;;28.60;84.20;;;;;;4181632;28;20500;-69
2021/12/24 06:45:33;;;;;;;18.48;14.35;;;28.60;83.80;;;;;;4181455;28;20043;-70
2021/12/24 06:47:38;;;;;;;21.25;14.15;;;28.70;83.70;;;;;;4181459;28;20135;-70
2021/12/24 06:49:42;;;;;;;19.38;15.07;;;28.70;83.90;;;;;;4181796;28;20048;-70
2021/12/24 06:51:46;;;;;;;17.88;14.25;;;28.70;83.80;;;;;;4181999;28;20511;-70
2021/12/24 06:53:50;;;;;;;19.88;13.82;;;28.80;83.90;;;;;;4182227;28;20045;-70
2021/12/24 06:55:56;;;;;;;20.33;13.63;;;28.70;83.40;;;;;;4179962;28;20041;-70
2021/12/24 06:58:01;;;;;;;16.70;12.80;;;28.80;80.70;;;;;;4205324;28;20048;-69
2021/12/24 07:00:06;;;;;;;19.05;12.57;;;28.80;81.40;;;;;;4178619;28;20123;-70
2021/12/24 07:02:10;;;;;;;17.33;13.02;;;28.80;79.20;;;;;;4163985;28;20381;-70
2021/12/24 07:04:15;;;;;;;15.88;13.40;;;28.60;80.20;;;;;;4181345;28;20037;-70
2021/12/24 07:06:21;;;;;;;20.58;14.60;;;28.60;81.60;;;;;;4178606;28;20048;-69
2021/12/24 07:08:26;;;;;;;22.40;14.50;;;28.70;82.30;;;;;;4181587;28;20608;-69
2021/12/24 07:10:30;;;;;;;18.98;13.70;;;28.70;82.70;;;;;;4181207;28;20048;-69
2021/12/24 07:12:35;;;;;;;17.65;13.95;;;28.70;83.00;;;;;;4181301;28;20053;-70
2021/12/24 07:14:40;;;;;;;17.17;14.35;;;28.70;82.70;;;;;;4180620;28;20045;-71
2021/12/24 07:16:44;;;;;;;17.10;14.13;;;28.80;82.60;;;;;;4177739;28;20127;-70
2021/12/24 07:18:49;;;;;;;17.17;13.80;;;28.90;82.20;;;;;;4182073;28;20045;-70
2021/12/24 07:20:53;;;;;;;20.20;14.05;;;28.90;81.80;;;;;;4180816;28;20047;-70
2021/12/24 07:22:58;;;;;;;23.27;13.93;;;28.90;81.80;;;;;;4181041;28;20076;-70
2021/12/24 07:25:06;;;;;;;22.50;13.15;;;29.00;81.40;;;;;;4179628;28;20045;-71
2021/12/24 07:27:10;;;;;;;17.75;12.90;;;29.10;80.60;;;;;;4180452;28;20482;-70
2021/12/24 07:29:14;;;;;;;15.35;11.85;;;29.10;80.70;;;;;;4181437;28;20050;-71
2021/12/24 07:31:18;;;;;;;16.75;13.10;;;29.10;80.60;;;;;;4179284;28;20069;-70
2021/12/24 07:33:23;;;;;;;19.95;13.10;;;29.10;80.70;;;;;;4180843;28;20049;-70
2021/12/24 07:35:28;;;;;;;18.25;13.43;;;29.00;80.60;;;;;;4183037;28;20167;-69
2021/12/24 07:37:32;;;;;;;21.92;13.68;;;29.10;80.50;;;;;;4180425;28;20392;-69
2021/12/24 07:39:36;;;;;;;18.63;13.48;;;29.00;79.80;;;;;;4181351;28;20459;-69
2021/12/24 07:41:41;;;;;;;17.65;13.10;;;29.00;79.90;;;;;;4177747;28;20073;-69
2021/12/24 07:43:48;;;;;;;16.58;12.55;;;29.00;80.10;;;;;;4179155;28;20045;-70
2021/12/24 07:45:54;;;;;;;18.17;12.07;;;28.90;80.00;;;;;;4180554;28;20045;-69
2021/12/24 07:52:21;;;;;;;19.90;13.65;;;28.80;79.50;;;;;;4173892;28;20052;-69
2021/12/24 07:54:25;;;;;;;18.02;13.82;;;28.80;79.60;;;;;;4165570;28;20725;-70
2021/12/24 07:56:31;;;;;;;20.85;14.52;;;28.90;80.00;;;;;;4164730;28;20045;-69
2021/12/24 07:58:35;;;;;;;17.33;13.05;;;28.80;80.10;;;;;;4196597;28;20033;-69
2021/12/24 08:00:42;;;;;;;16.17;13.55;;;28.80;80.00;;;;;;4193078;28;20037;-71
2021/12/24 08:02:47;;;;;;;17.63;13.05;;;28.80;80.20;;;;;;4197626;28;20049;-70
2021/12/24 08:04:53;;;;;;;13.85;12.13;;;28.70;80.30;;;;;;4197505;28;20055;-70
2021/12/24 08:07:01;;;;;;;16.33;12.05;;;28.70;80.40;;;;;;4197498;28;20049;-70
2021/12/24 08:09:08;;;;;;;16.88;12.65;;;28.70;80.60;;;;;;4195274;28;20056;-70
2021/12/24 08:11:13;;;;;;;20.45;12.57;;;28.60;80.60;;;;;;4180868;28;20053;-71
2021/12/24 08:13:19;;;;;;;22.77;12.48;;;28.60;80.70;;;;;;4181155;28;20419;-69
2021/12/24 08:15:24;;;;;;;14.40;11.73;;;28.60;80.90;;;;;;4181031;28;20069;-70
2021/12/24 08:17:28;;;;;;;17.25;12.25;;;28.60;80.70;;;;;;4181325;28;20053;-70
2021/12/24 08:19:32;;;;;;;33.38;12.68;;;28.50;81.00;;;;;;4176741;28;20060;-69
2021/12/24 08:21:37;;;;;;;16.90;12.27;;;28.60;81.40;;;;;;4177867;28;20051;-70
2021/12/24 08:23:45;;;;;;;23.85;12.40;;;28.60;81.80;;;;;;4180520;28;20052;-70
2021/12/24 08:25:55;;;;;;;14.93;11.73;;;28.60;81.80;;;;;;4179942;28;20040;-70
2021/12/24 08:27:59;;;;;;;15.45;11.32;;;28.60;81.70;;;;;;4177748;28;20041;-69
2021/12/24 08:30:05;;;;;;;14.45;11.38;;;28.60;81.70;;;;;;4177850;28;20044;-72
2021/12/24 08:32:09;;;;;;;17.63;11.88;;;28.60;81.80;;;;;;4175426;28;20067;-71
2021/12/24 08:34:15;;;;;;;18.08;11.43;;;28.60;81.70;;;;;;4179077;28;20102;-69
2021/12/24 08:36:20;;;;;;;12.60;10.23;;;28.70;81.20;;;;;;4177485;28;20049;-70
2021/12/24 08:38:24;;;;;;;15.73;10.63;;;28.70;81.00;;;;;;4177862;28;20045;-70
2021/12/24 08:40:29;;;;;;;14.60;10.73;;;28.70;80.90;;;;;;4177541;28;20049;-70
2021/12/24 08:42:33;;;;;;;18.90;10.55;;;28.60;81.00;;;;;;4176831;28;20156;-70
2021/12/24 08:44:38;;;;;;;15.18;10.82;;;28.70;80.60;;;;;;4178088;28;20079;-70
2021/12/24 08:46:42;;;;;;;14.65;11.13;;;28.60;79.70;;;;;;4178141;28;20798;-70
2021/12/24 08:48:47;;;;;;;14.25;10.10;;;28.70;79.80;;;;;;4177955;28;20057;-70
2021/12/24 08:50:51;;;;;;;15.77;10.00;;;28.60;79.90;;;;;;4176597;28;20368;-70
2021/12/24 08:52:56;;;;;;;16.25;10.07;;;28.60;79.80;;;;;;4177147;28;20438;-70
2021/12/24 08:55:00;;;;;;;14.82;10.20;;;28.60;79.30;;;;;;4175111;28;20098;-70
2021/12/24 08:57:05;;;;;;;13.80;10.35;;;28.60;78.60;;;;;;4174408;28;20110;-71
2021/12/24 08:59:09;;;;;;;15.93;10.50;;;28.60;78.80;;;;;;4175785;28;20049;-70
2021/12/24 09:01:14;;;;;;;13.27;10.30;;;28.60;78.50;;;;;;4176783;28;20041;-70
2021/12/24 09:03:19;;;;;;;14.40;9.68;;;28.60;78.40;;;;;;4177129;28;20223;-70
2021/12/24 09:05:24;;;;;;;12.77;9.23;;;28.70;76.90;;;;;;4175876;28;20049;-70
2021/12/24 09:07:29;;;;;;;19.73;16.67;;;28.60;77.50;;;;;;4176486;28;20045;-70
2021/12/24 09:09:33;;;;;;;15.18;10.00;;;28.70;77.80;;;;;;4176484;28;20059;-70
2021/12/24 09:11:39;;;;;;;14.63;10.30;;;28.70;77.10;;;;;;4176515;28;20057;-70
2021/12/24 09:13:45;;;;;;;19.65;9.77;;;28.70;77.50;;;;;;4176464;28;20080;-70
2021/12/24 09:15:49;;;;;;;15.60;9.68;;;28.70;77.00;;;;;;4174042;28;20045;-70
2021/12/24 09:17:54;;;;;;;12.57;10.90;;;28.60;77.60;;;;;;4176998;28;20044;-70
2021/12/24 09:19:58;;;;;;;15.57;10.45;;;28.60;78.20;;;;;;4176956;28;20517;-70
2021/12/24 09:22:04;;;;;;;18.42;11.27;;;28.50;78.50;;;;;;4176141;28;20812;-70
2021/12/24 09:24:09;;;;;;;17.52;11.90;;;28.50;78.40;;;;;;4175781;28;20090;-70
2021/12/24 09:26:13;;;;;;;14.07;11.38;;;28.50;78.70;;;;;;4176861;28;20040;-70
2021/12/24 09:28:18;;;;;;;17.10;11.48;;;28.50;78.90;;;;;;4176915;28;20053;-70
2021/12/24 09:30:23;;;;;;;17.58;11.45;;;28.40;78.90;;;;;;4173877;28;20147;-71
2021/12/24 09:32:29;;;;;;;18.42;11.40;;;28.40;78.50;;;;;;4175964;28;20045;-70
2021/12/24 09:34:33;;;;;;;15.95;10.57;;;28.40;78.70;;;;;;4175676;28;20067;-70
2021/12/24 09:36:38;;;;;;;13.63;9.95;;;28.40;78.90;;;;;;4174675;28;20056;-70
2021/12/24 09:38:42;;;;;;;15.73;9.80;;;28.40;79.00;;;;;;4171703;28;20488;-70
2021/12/24 09:40:47;;;;;;;12.52;10.30;;;28.40;79.10;;;;;;4157992;28;20052;-70
2021/12/24 09:42:51;;;;;;;18.05;9.95;;;28.40;79.30;;;;;;4169931;28;20874;-70
2021/12/24 09:44:55;;;;;;;14.57;10.57;;;28.40;80.40;;;;;;4173622;28;20190;-70
2021/12/24 09:47:00;;;;;;;18.95;10.68;;;28.40;81.10;;;;;;4174485;28;20044;-70
2021/12/24 09:49:04;;;;;;;13.13;10.02;;;28.40;81.30;;;;;;4176887;28;20080;-69
2021/12/24 09:51:09;;;;;;;16.38;10.45;;;28.40;81.00;;;;;;4176949;28;20048;-70
2021/12/24 09:53:15;;;;;;;15.05;10.52;;;28.40;81.20;;;;;;4176778;28;20106;-70
2021/12/24 09:55:23;;;;;;;16.60;10.68;;;28.50;81.00;;;;;;4179440;28;20053;-70
2021/12/24 09:57:28;;;;;;;15.30;10.32;;;28.50;81.00;;;;;;4189061;28;20045;-71
2021/12/24 09:59:32;;;;;;;17.55;10.30;;;28.40;81.20;;;;;;4171265;28;20068;-71
2021/12/24 10:01:43;;;;;;;15.98;10.38;;;28.40;81.60;;;;;;4168699;28;20045;-71
2021/12/24 10:03:48;;;;;;;19.85;12.95;;;28.40;82.50;;;;;;4173364;28;20037;-71
2021/12/24 10:05:52;;;;;;;22.00;11.77;;;28.30;85.10;;;;;;4172817;28;20046;-70
2021/12/24 10:08:19;;;;;;;19.65;13.38;;;28.30;83.60;;;;;;4175689;28;20063;-70
2021/12/24 10:10:28;;;;;;;22.27;15.57;;;28.30;84.80;;;;;;4175198;28;20053;-70
2021/12/24 10:12:32;;;;;;;21.27;15.10;;;28.20;83.60;;;;;;4162623;28;20063;-71
2021/12/24 10:15:01;;;;;;;22.15;16.55;;;28.20;84.90;;;;;;4163802;28;20053;-70
2021/12/24 10:17:26;;;;;;;16.90;12.57;;;28.20;84.30;;;;;;4172988;28;20056;-70
2021/12/24 10:19:50;;;;;;;15.50;12.15;;;28.20;83.20;;;;;;4176714;28;20136;-70
2021/12/24 10:21:59;;;;;;;16.75;12.10;;;28.20;83.10;;;;;;4178193;28;20041;-71
2021/12/24 10:24:17;;;;;;;17.77;12.32;;;28.20;81.50;;;;;;4176792;28;20470;-69
2021/12/24 10:26:45;;;;;;;26.30;13.25;;;28.20;81.80;;;;;;4175859;28;20048;-69
2021/12/24 10:28:54;;;;;;;22.38;13.88;;;28.20;82.00;;;;;;4177319;28;20368;-69
2021/12/24 10:31:02;;;;;;;21.92;16.13;;;28.20;82.10;;;;;;4177710;28;20486;-68
2021/12/24 10:33:10;;;;;;;25.90;16.50;;;28.20;81.90;;;;;;4175447;28;20648;-69
2021/12/24 10:35:26;;;;;;;24.50;15.70;;;28.20;81.80;;;;;;4174496;28;20045;-68
2021/12/24 10:37:31;;;;;;;22.88;15.75;;;28.20;82.10;;;;;;4177315;28;20065;-70
2021/12/24 10:39:58;;;;;;;24.17;15.80;;;28.20;82.30;;;;;;4177587;28;20621;-69
2021/12/24 10:42:05;;;;;;;23.08;15.15;;;28.20;82.40;;;;;;4177422;28;20069;-70
2021/12/24 10:44:24;;;;;;;28.30;17.95;;;28.10;83.00;;;;;;4175458;28;20108;-69
2021/12/24 10:46:29;;;;;;;35.30;17.92;;;28.10;82.50;;;;;;4174385;28;20041;-69
2021/12/24 10:48:33;;;;;;;36.88;18.05;;;28.10;83.50;;;;;;4176970;28;20572;-68
2021/12/24 10:50:48;;;;;;;36.63;17.92;;;28.10;82.90;;;;;;4172850;28;20436;-68
2021/12/24 10:55:19;;;;;;;36.58;19.95;;;28.00;83.00;;;;;;4176118;28;20385;-68
2021/12/24 10:57:26;;;;;;;28.30;18.45;;;28.00;83.30;;;;;;4173926;28;20059;-68
2021/12/24 10:59:49;;;;;;;30.42;18.73;;;28.00;83.70;;;;;;4174852;28;20079;-68
2021/12/24 11:02:09;;;;;;;29.45;19.45;;;28.00;83.90;;;;;;4173059;28;20040;-68
2021/12/24 11:04:13;;;;;;;33.00;18.42;;;28.00;84.30;;;;;;4173094;28;20052;-68
2021/12/24 11:06:19;;;;;;;35.58;19.50;;;27.90;85.20;;;;;;4171714;28;20044;-68
2021/12/24 11:08:27;;;;;;;36.60;19.08;;;27.90;84.70;;;;;;4172545;28;20049;-68
2021/12/24 11:10:33;;;;;;;32.45;19.20;;;27.80;84.90;;;;;;4174607;28;20500;-68
2021/12/24 11:12:40;;;;;;;33.38;18.55;;;27.80;84.70;;;;;;4173468;28;20078;-68
2021/12/24 11:14:44;;;;;;;33.53;19.75;;;27.80;85.20;;;;;;4175482;28;20056;-68
2021/12/24 11:16:49;;;;;;;30.98;19.42;;;27.80;85.30;;;;;;4176656;28;20045;-68
2021/12/24 11:18:58;;;;;;;32.13;19.15;;;27.80;85.50;;;;;;4172983;28;20412;-68
2021/12/24 11:21:11;;;;;;;35.47;19.45;;;27.80;85.50;;;;;;4175437;28;20432;-69
2021/12/24 11:23:17;;;;;;;33.05;18.65;;;27.80;85.50;;;;;;4175838;28;20044;-68
2021/12/24 11:25:22;;;;;;;31.35;19.23;;;27.80;85.60;;;;;;4175008;28;20682;-68
2021/12/24 11:27:26;;;;;;;35.92;20.15;;;27.80;85.50;;;;;;4174550;28;20438;-68
2021/12/24 11:29:31;;;;;;;33.55;19.65;;;27.70;85.60;;;;;;4175501;28;20045;-68
2021/12/24 11:31:36;;;;;;;42.95;21.33;;;27.80;86.00;;;;;;4173806;28;20048;-68
2021/12/24 11:33:42;;;;;;;48.50;23.02;;;27.70;86.40;;;;;;4175300;28;20474;-67
2021/12/24 11:35:47;;;;;;;41.92;22.60;;;27.70;86.80;;;;;;4174771;28;20128;-68
2021/12/24 11:37:53;;;;;;;39.53;21.15;;;27.70;87.00;;;;;;4172557;28;20096;-68
2021/12/24 11:39:58;;;;;;;41.83;25.25;;;27.70;87.30;;;;;;4169299;28;20057;-69
2021/12/24 11:42:03;;;;;;;36.90;23.50;;;27.50;87.80;;;;;;4171190;28;20509;-69
2021/12/24 11:44:07;;;;;;;49.22;25.80;;;27.40;87.90;;;;;;4170977;28;20118;-69
2021/12/24 11:46:15;;;;;;;53.83;27.02;;;27.40;87.10;;;;;;4171544;28;20051;-69
2021/12/24 11:48:20;;;;;;;49.20;26.17;;;27.40;86.50;;;;;;4170651;28;20148;-69
2021/12/24 11:50:25;;;;;;;43.15;26.70;;;27.40;85.40;;;;;;4173214;28;20075;-70
2021/12/24 11:52:29;;;;;;;40.47;25.75;;;27.50;86.10;;;;;;4171363;28;20041;-70
2021/12/24 11:54:34;;;;;;;48.97;26.10;;;27.60;85.50;;;;;;4163482;28;20542;-67
2021/12/24 11:56:46;;;;;;;37.17;25.20;;;27.60;85.30;;;;;;4165104;28;20056;-68
2021/12/24 11:58:56;;;;;;;47.78;26.48;;;27.60;85.40;;;;;;4164288;28;20503;-68
2021/12/24 12:01:04;;;;;;;44.15;25.52;;;27.60;85.70;;;;;;4167120;28;20040;-69
2021/12/24 12:03:10;;;;;;;40.65;26.52;;;27.60;85.60;;;;;;4171620;28;20147;-68
2021/12/24 12:05:34;;;;;;;49.30;25.92;;;27.50;86.20;;;;;;4170802;28;20072;-68
2021/12/24 12:07:38;;;;;;;45.08;25.70;;;27.40;86.60;;;;;;4172577;28;20044;-69
2021/12/24 12:09:44;;;;;;;37.88;24.98;;;27.40;86.00;;;;;;4175796;28;20037;-69
2021/12/24 12:11:56;;;;;;;48.47;27.10;;;27.40;86.50;;;;;;4174895;28;20107;-68
2021/12/24 12:14:07;;;;;;;42.83;25.93;;;27.40;86.30;;;;;;4178190;28;20059;-70
2021/12/24 12:16:29;;;;;;;44.42;26.10;;;27.40;86.40;;;;;;4178011;28;20052;-70
2021/12/24 12:18:43;;;;;;;49.40;25.80;;;27.50;86.50;;;;;;4180202;28;20399;-69
2021/12/24 12:20:55;;;;;;;39.38;26.13;;;27.50;86.50;;;;;;4173074;28;20080;-69
2021/12/24 12:23:01;;;;;;;54.45;26.48;;;27.50;86.50;;;;;;4174727;28;20522;-69
2021/12/24 12:25:10;;;;;;;58.10;27.05;;;27.50;86.90;;;;;;4175622;28;20112;-69
2021/12/24 12:27:21;;;;;;;46.80;25.60;;;27.40;87.50;;;;;;4175112;28;20052;-69
2021/12/24 12:29:45;;;;;;;58.63;28.17;;;27.30;88.10;;;;;;4157958;28;20046;-70
2021/12/24 12:32:11;;;;;;;43.88;27.75;;;27.30;88.50;;;;;;4174724;28;20423;-70
2021/12/24 12:34:40;;;;;;;46.60;28.20;;;27.30;88.50;;;;;;4176699;28;20040;-69
2021/12/24 12:36:45;;;;;;;43.33;26.73;;;27.20;88.60;;;;;;4176774;28;20078;-69
2021/12/24 12:38:49;;;;;;;47.38;26.45;;;27.20;89.30;;;;;;4174277;28;20585;-70
2021/12/24 12:40:54;;;;;;;43.58;27.38;;;27.10;89.60;;;;;;4172960;28;20072;-69